Time;durP1;ratioP1;P1;durP2;ratioP2;P2;SDS_P1;SDS_P2;PMS_P1;PMS_P2;Temp;Humidity;BMP_temperature;BMP_pressure;BME280_temperature;BME280_humidity;BME280_pressure;Samples;Min_cycle;Max_cycle;Signal;HPM_P1;HPM_P2
2023/09/07 00:02:11;;;;;;;2.20;1.00;;;;;;;17.57;100.00;100812.89;104384;1263;60507;-51
2023/09/07 00:04:39;;;;;;;1.50;1.00;;;;;;;17.55;100.00;100816.69;104427;1267;59576;-50
2023/09/07 00:07:06;;;;;;;1.20;1.10;;;;;;;17.52;100.00;100813.75;104339;1266;73030;-50
2023/09/07 00:09:34;;;;;;;2.10;1.10;;;;;;;17.50;100.00;100814.26;104671;1260;66762;-50
2023/09/07 00:12:01;;;;;;;3.70;1.60;;;;;;;17.47;100.00;100813.86;104395;1263;72596;-49
2023/09/07 00:14:29;;;;;;;1.20;0.90;;;;;;;17.42;100.00;100811.09;104204;1264;59760;-49
2023/09/07 00:16:57;;;;;;;2.00;1.00;;;;;;;17.38;100.00;100812.77;104323;1260;59974;-52
2023/09/07 00:19:25;;;;;;;1.40;1.10;;;;;;;17.36;100.00;100815.63;104902;1266;72998;-52
2023/09/07 00:21:52;;;;;;;1.50;1.20;;;;;;;17.33;100.00;100816.02;104444;1263;68168;-52
2023/09/07 00:24:21;;;;;;;1.90;1.10;;;;;;;17.29;100.00;100815.49;104162;1260;72623;-51
2023/09/07 00:26:48;;;;;;;2.70;1.30;;;;;;;17.24;100.00;100819.25;105370;1266;62143;-49
2023/09/07 00:29:16;;;;;;;2.20;1.00;;;;;;;17.17;100.00;100820.78;104086;1266;60086;-51
2023/09/07 00:31:43;;;;;;;2.50;1.00;;;;;;;17.11;100.00;100828.75;104020;1266;73012;-51
2023/09/07 00:34:10;;;;;;;1.20;1.00;;;;;;;17.00;100.00;100833.53;104289;1263;64854;-50
2023/09/07 00:36:38;;;;;;;2.50;0.90;;;;;;;16.91;100.00;100841.29;104583;1261;72749;-50
2023/09/07 00:39:06;;;;;;;1.90;0.90;;;;;;;16.82;100.00;100846.88;104275;1265;61676;-51
2023/09/07 00:41:33;;;;;;;1.50;1.00;;;;;;;16.75;100.00;100850.05;104532;1260;60022;-50
2023/09/07 00:44:00;;;;;;;1.40;0.90;;;;;;;16.70;100.00;100849.02;104553;1261;71802;-50
2023/09/07 00:46:28;;;;;;;2.40;1.00;;;;;;;16.68;100.00;100850.40;104390;1261;65936;-51
2023/09/07 00:48:55;;;;;;;1.30;1.10;;;;;;;16.63;100.00;100846.70;104599;1266;71592;-50
2023/09/07 00:51:23;;;;;;;2.60;1.10;;;;;;;16.60;100.00;100847.01;105496;1266;60926;-51
2023/09/07 00:53:50;;;;;;;3.40;1.10;;;;;;;16.58;100.00;100850.58;104479;1261;60007;-50
2023/09/07 00:56:18;;;;;;;1.40;1.20;;;;;;;16.54;100.00;100843.36;104584;1261;72962;-50
2023/09/07 00:58:46;;;;;;;1.20;1.10;;;;;;;16.52;100.00;100847.48;104566;1260;65991;-50
2023/09/07 01:01:13;;;;;;;1.40;1.10;;;;;;;16.50;100.00;100847.45;104549;1267;72494;-51
2023/09/07 01:03:40;;;;;;;1.10;1.00;;;;;;;16.48;100.00;100846.81;105889;1262;60708;-49
2023/09/07 01:06:20;;;;;;;1.60;0.90;;;;;;;16.45;100.00;100848.95;104518;1266;60511;-50
2023/09/07 01:08:50;;;;;;;1.70;0.80;;;;;;;16.40;100.00;100848.13;108568;1262;73865;-51
2023/09/07 01:11:22;;;;;;;2.50;1.00;;;;;;;16.38;100.00;100846.46;108469;1266;66734;-50
2023/09/07 01:13:52;;;;;;;1.60;1.00;;;;;;;16.36;100.00;100847.64;108620;1260;72679;-50
2023/09/07 01:16:20;;;;;;;1.10;1.00;;;;;;;16.35;100.00;100853.48;108494;1262;60053;-50
2023/09/07 01:18:48;;;;;;;2.30;1.00;;;;;;;16.33;100.00;100856.50;108702;1261;58776;-54
2023/09/07 01:21:15;;;;;;;2.20;1.10;;;;;;;16.29;100.00;100853.30;108673;1260;73799;-52
2023/09/07 01:23:43;;;;;;;1.30;1.10;;;;;;;16.25;100.00;100854.22;108445;1262;66784;-53
2023/09/07 01:26:11;;;;;;;1.70;1.10;;;;;;;16.22;100.00;100856.36;106576;1261;73280;-52
2023/09/07 01:28:38;;;;;;;2.90;0.90;;;;;;;16.20;100.00;100861.74;104608;1260;60690;-53
2023/09/07 01:31:09;;;;;;;2.70;0.80;;;;;;;16.16;100.00;100864.67;104364;1261;60377;-51
2023/09/07 01:33:37;;;;;;;1.90;0.90;;;;;;;16.12;100.00;100867.98;108568;1260;74024;-52
2023/09/07 01:36:05;;;;;;;4.30;0.90;;;;;;;16.09;100.00;100868.48;108518;1260;66771;-52
2023/09/07 01:38:32;;;;;;;2.70;0.90;;;;;;;16.07;100.00;100874.02;108489;1260;72495;-52
2023/09/07 01:41:00;;;;;;;1.20;1.10;;;;;;;16.08;100.00;100871.25;108553;1260;60394;-54
2023/09/07 01:43:28;;;;;;;1.40;0.90;;;;;;;16.09;100.00;100870.49;107732;1263;60110;-50
2023/09/07 01:45:55;;;;;;;1.30;0.90;;;;;;;16.10;100.00;100872.80;104217;1260;72651;-50
2023/09/07 01:48:23;;;;;;;1.10;1.00;;;;;;;16.11;100.00;100874.90;104374;1260;66968;-50
2023/09/07 01:50:54;;;;;;;1.50;1.00;;;;;;;16.11;100.00;100872.74;104326;1267;72468;-50
2023/09/07 01:53:21;;;;;;;2.90;1.10;;;;;;;16.11;100.00;100879.08;105050;1260;60653;-49
2023/09/07 01:55:50;;;;;;;1.90;0.90;;;;;;;16.10;100.00;100880.38;104386;1263;60437;-50
2023/09/07 01:58:18;;;;;;;2.30;0.90;;;;;;;16.09;100.00;100877.38;104590;1261;72684;-50
2023/09/07 02:00:45;;;;;;;2.20;0.90;;;;;;;16.07;100.00;100878.73;104277;1261;67622;-49
2023/09/07 02:03:13;;;;;;;1.30;0.70;;;;;;;16.07;100.00;100878.21;105908;1259;71334;-50
2023/09/07 02:05:40;;;;;;;1.40;0.80;;;;;;;16.07;100.00;100879.84;104426;1260;61724;-51
2023/09/07 02:08:08;;;;;;;1.40;0.80;;;;;;;16.09;100.00;100878.64;104306;1264;60560;-49
2023/09/07 02:10:35;;;;;;;0.80;0.70;;;;;;;16.10;100.00;100876.02;104445;1261;74427;-50
2023/09/07 02:13:03;;;;;;;1.10;0.80;;;;;;;16.14;100.00;100876.05;104249;1265;67167;-49
2023/09/07 02:15:31;;;;;;;1.30;0.60;;;;;;;16.18;100.00;100879.39;104623;1264;72708;-51
2023/09/07 02:17:58;;;;;;;2.00;1.50;;;;;;;16.24;100.00;100876.38;104428;1266;62057;-49
2023/09/07 02:20:26;;;;;;;1.40;0.70;;;;;;;16.32;100.00;100878.86;104202;1260;60466;-50
2023/09/07 02:22:53;;;;;;;0.70;0.70;;;;;;;16.38;100.00;100881.25;104221;1260;72228;-50
2023/09/07 02:25:21;;;;;;;3.70;1.50;;;;;;;16.40;100.00;100876.59;104415;1267;66313;-50
2023/09/07 02:27:49;;;;;;;5.00;1.00;;;;;;;16.42;100.00;100879.75;104404;1259;72903;-50
2023/09/07 02:30:17;;;;;;;1.10;0.80;;;;;;;16.43;100.00;100878.23;104428;1262;60576;-49
2023/09/07 02:32:44;;;;;;;0.90;0.70;;;;;;;16.43;100.00;100879.47;104506;1258;60553;-50
2023/09/07 02:35:12;;;;;;;1.00;0.80;;;;;;;16.43;100.00;100880.04;104865;1257;73784;-50
2023/09/07 02:37:39;;;;;;;0.80;0.70;;;;;;;16.44;100.00;100881.98;104408;1264;67592;-49
2023/09/07 02:40:08;;;;;;;0.90;0.80;;;;;;;16.46;100.00;100882.98;104577;1259;73143;-50
2023/09/07 02:42:36;;;;;;;1.20;0.60;;;;;;;16.47;100.00;100880.58;104718;1264;61695;-49
2023/09/07 02:45:04;;;;;;;0.90;0.70;;;;;;;16.48;100.00;100878.49;104478;1258;60542;-50
2023/09/07 02:47:31;;;;;;;0.80;0.70;;;;;;;16.49;100.00;100878.08;105593;1258;74372;-50
2023/09/07 02:49:59;;;;;;;1.20;0.80;;;;;;;16.52;100.00;100878.09;104852;1261;68055;-47
2023/09/07 02:52:28;;;;;;;0.90;0.70;;;;;;;16.54;100.00;100879.60;104697;1264;71705;-50
2023/09/07 02:54:56;;;;;;;2.60;0.80;;;;;;;16.57;100.00;100881.64;105118;1259;60523;-50
2023/09/07 02:57:24;;;;;;;1.40;0.70;;;;;;;16.60;100.00;100881.80;104572;1264;61606;-49
2023/09/07 02:59:52;;;;;;;0.80;0.80;;;;;;;16.64;100.00;100881.64;104715;1259;72613;-50
2023/09/07 03:02:20;;;;;;;0.80;0.80;;;;;;;16.67;100.00;100881.67;104874;1262;67386;-51
2023/09/07 03:04:47;;;;;;;0.80;0.70;;;;;;;16.68;100.00;100883.59;104679;1259;71218;-51
2023/09/07 03:07:17;;;;;;;1.50;0.80;;;;;;;16.68;100.00;100884.69;104848;1260;60524;-50
2023/09/07 03:09:45;;;;;;;0.90;0.80;;;;;;;16.66;100.00;100884.42;104666;1258;60585;-50
2023/09/07 03:12:12;;;;;;;1.20;0.90;;;;;;;16.63;100.00;100885.30;104450;1257;73845;-49
2023/09/07 03:14:43;;;;;;;0.80;0.80;;;;;;;16.60;100.00;100886.34;104705;1260;66788;-48
2023/09/07 03:17:11;;;;;;;2.00;0.70;;;;;;;16.57;100.00;100894.33;104634;1260;71066;-48
2023/09/07 03:19:39;;;;;;;4.30;0.80;;;;;;;16.53;100.00;100898.31;104731;1261;60569;-48
2023/09/07 03:22:08;;;;;;;2.60;0.70;;;;;;;16.51;100.00;100900.60;104570;1257;60514;-50
2023/09/07 03:24:35;;;;;;;1.70;0.80;;;;;;;16.49;100.00;100901.81;104530;1259;74802;-50
2023/09/07 03:27:04;;;;;;;2.60;0.80;;;;;;;16.50;100.00;100907.39;104551;1260;68054;-51
2023/09/07 03:29:33;;;;;;;1.30;1.00;;;;;;;16.51;100.00;100912.77;105170;1261;71691;-51
2023/09/07 03:32:01;;;;;;;1.70;0.60;;;;;;;16.51;100.00;100916.89;105431;1257;61744;-51
2023/09/07 03:34:29;;;;;;;0.90;0.70;;;;;;;16.51;100.00;100916.56;104928;1257;60565;-51
2023/09/07 03:36:57;;;;;;;2.50;0.90;;;;;;;16.48;100.00;100919.64;104479;1258;72896;-50
2023/09/07 03:39:24;;;;;;;3.40;0.90;;;;;;;16.47;100.00;100921.69;104892;1262;66597;-50
2023/09/07 03:41:52;;;;;;;1.40;1.00;;;;;;;16.44;100.00;100926.70;106924;1257;72702;-50
2023/09/07 03:44:22;;;;;;;2.50;0.90;;;;;;;16.39;100.00;100931.33;105183;1257;60604;-50
2023/09/07 03:46:49;;;;;;;1.70;0.90;;;;;;;16.36;100.00;100936.02;104459;1258;60569;-47
2023/09/07 03:49:17;;;;;;;1.10;0.80;;;;;;;16.35;100.00;100937.58;104259;1262;72608;-51
2023/09/07 03:51:45;;;;;;;0.90;0.80;;;;;;;16.31;100.00;100945.36;105395;1271;66718;-50
2023/09/07 03:54:12;;;;;;;1.20;0.80;;;;;;;16.28;100.00;100944.45;104618;1260;70266;-49
2023/09/07 03:56:40;;;;;;;1.40;1.20;;;;;;;16.27;100.00;100942.48;104638;1260;62304;-49
2023/09/07 03:59:08;;;;;;;1.80;0.80;;;;;;;16.29;100.00;100947.11;104469;1260;60559;-49
2023/09/07 04:01:35;;;;;;;0.80;0.80;;;;;;;16.31;100.00;100955.15;104408;1259;73251;-50
2023/09/07 04:04:03;;;;;;;3.50;0.80;;;;;;;16.34;100.00;100958.96;104550;1257;66781;-48
2023/09/07 04:06:30;;;;;;;3.60;1.00;;;;;;;16.38;100.00;100959.13;108581;1259;72758;-51
2023/09/07 04:08:58;;;;;;;0.90;0.70;;;;;;;16.40;100.00;100962.63;108538;1258;60425;-51
2023/09/07 04:11:26;;;;;;;1.50;0.80;;;;;;;16.43;100.00;100964.30;108616;1257;58828;-51
2023/09/07 04:13:53;;;;;;;1.50;0.80;;;;;;;16.45;100.00;100966.33;108649;1257;72724;-51
2023/09/07 04:16:21;;;;;;;1.60;0.70;;;;;;;16.50;100.00;100967.54;108734;1259;66778;-52
2023/09/07 04:18:48;;;;;;;0.70;0.70;;;;;;;16.57;100.00;100966.61;108587;1259;70619;-50
2023/09/07 04:21:15;;;;;;;1.00;0.80;;;;;;;16.62;100.00;100968.71;108641;1258;63941;-51
2023/09/07 04:23:43;;;;;;;1.00;0.70;;;;;;;16.69;100.00;100973.24;108662;1257;60219;-50
2023/09/07 04:26:11;;;;;;;5.40;1.50;;;;;;;16.76;100.00;100967.62;108763;1257;72617;-50
2023/09/07 04:28:38;;;;;;;2.10;0.80;;;;;;;16.84;100.00;100968.64;108646;1257;66900;-52
2023/09/07 04:31:06;;;;;;;2.10;0.60;;;;;;;16.92;100.00;100967.09;108662;1257;70730;-49
2023/09/07 04:33:33;;;;;;;2.10;0.80;;;;;;;17.01;100.00;100964.41;108601;1257;60710;-49
2023/09/07 04:36:13;;;;;;;2.20;0.80;;;;;;;17.16;100.00;100967.02;108787;1257;60001;-49
2023/09/07 04:38:44;;;;;;;1.10;0.70;;;;;;;17.39;100.00;100966.42;108629;1257;71664;-49
2023/09/07 04:41:12;;;;;;;3.90;0.70;;;;;;;17.61;100.00;100973.11;108666;1257;67491;-49
2023/09/07 04:43:43;;;;;;;2.00;0.70;;;;;;;17.86;100.00;100970.23;108705;1257;71711;-49
2023/09/07 04:46:14;;;;;;;0.90;0.70;;;;;;;18.13;100.00;100966.78;106970;1260;60401;-51
2023/09/07 04:48:41;;;;;;;0.90;0.70;;;;;;;18.29;100.00;100963.66;106625;1258;60472;-50
2023/09/07 04:51:09;;;;;;;3.30;0.70;;;;;;;18.37;100.00;100963.85;104532;1258;73861;-53
2023/09/07 04:53:38;;;;;;;1.20;0.80;;;;;;;18.38;100.00;100966.15;104496;1259;66200;-52
2023/09/07 04:56:06;;;;;;;1.50;0.90;;;;;;;18.34;100.00;100967.85;104508;1260;71433;-52
2023/09/07 04:58:34;;;;;;;1.40;1.00;;;;;;;18.28;100.00;100965.33;104857;1264;60468;-50
2023/09/07 05:01:05;;;;;;;0.90;0.80;;;;;;;18.24;100.00;100967.73;104467;1261;60549;-50
2023/09/07 05:03:33;;;;;;;1.70;0.80;;;;;;;18.18;100.00;100969.00;104427;1257;73773;-50
2023/09/07 05:06:02;;;;;;;0.80;0.60;;;;;;;18.13;100.00;100973.34;105245;1258;65937;-50
2023/09/07 05:08:31;;;;;;;5.20;0.60;;;;;;;18.08;100.00;100975.77;106040;1260;73601;-51
2023/09/07 05:10:59;;;;;;;2.70;0.70;;;;;;;18.02;100.00;100976.91;104516;1260;60602;-51
2023/09/07 05:13:27;;;;;;;1.80;1.00;;;;;;;18.00;100.00;100980.27;108649;1257;58909;-52
2023/09/07 05:15:55;;;;;;;1.90;0.80;;;;;;;18.01;100.00;100979.50;108606;1257;73862;-52
2023/09/07 05:18:23;;;;;;;6.20;0.70;;;;;;;17.98;100.00;100983.64;108724;1257;67391;-52
2023/09/07 05:20:51;;;;;;;1.10;0.70;;;;;;;17.94;100.00;100983.55;108690;1257;72640;-52
2023/09/07 05:23:20;;;;;;;1.10;0.70;;;;;;;17.92;100.00;100986.20;108753;1256;58116;-52
2023/09/07 05:25:54;;;;;;;1.10;0.80;;;;;;;17.96;100.00;100987.42;106182;1258;60406;-50
2023/09/07 05:28:23;;;;;;;3.10;0.90;;;;;;;18.02;100.00;100992.34;104883;1256;73847;-49
2023/09/07 05:30:51;;;;;;;2.50;0.70;;;;;;;18.04;100.00;100988.73;104814;1257;66933;-51
2023/09/07 05:33:20;;;;;;;3.40;0.70;;;;;;;18.08;100.00;100987.23;105007;1256;72461;-51
2023/09/07 05:35:48;;;;;;;3.10;0.80;;;;;;;18.14;100.00;100981.77;105113;1259;61186;-51
2023/09/07 05:38:15;;;;;;;2.20;0.80;;;;;;;18.21;100.00;100983.59;104901;1260;60475;-52
2023/09/07 05:40:44;;;;;;;4.00;0.70;;;;;;;18.21;100.00;100979.40;105224;1259;76504;-50
2023/09/07 05:43:12;;;;;;;3.50;0.80;;;;;;;18.17;100.00;100984.15;105301;1256;66976;-51
2023/09/07 05:45:40;;;;;;;1.50;0.70;;;;;;;18.14;100.00;100984.16;104900;1259;72667;-50
2023/09/07 05:48:09;;;;;;;3.60;0.90;;;;;;;18.11;100.00;100989.44;104747;1256;61001;-51
2023/09/07 05:50:37;;;;;;;1.30;0.80;;;;;;;18.10;100.00;100988.20;104769;1256;60460;-49
2023/09/07 05:53:05;;;;;;;1.20;0.80;;;;;;;18.14;100.00;100989.23;104817;1257;72524;-50
2023/09/07 05:55:33;;;;;;;1.10;0.70;;;;;;;18.17;100.00;100989.26;105986;1257;67877;-51
2023/09/07 05:58:04;;;;;;;1.60;1.00;;;;;;;18.19;100.00;100989.88;105079;1256;71493;-52
2023/09/07 06:00:32;;;;;;;2.10;0.90;;;;;;;18.21;100.00;100995.34;104845;1256;61058;-52
2023/09/07 06:02:59;;;;;;;3.70;0.80;;;;;;;18.27;100.00;100996.48;104846;1260;60504;-52
2023/09/07 06:05:27;;;;;;;1.80;0.80;;;;;;;18.33;100.00;100998.46;105216;1256;73849;-50
2023/09/07 06:07:55;;;;;;;1.40;0.90;;;;;;;18.37;100.00;100995.30;104663;1261;67136;-51
2023/09/07 06:10:22;;;;;;;5.00;0.90;;;;;;;18.43;100.00;101000.71;104933;1260;71963;-51
2023/09/07 06:12:50;;;;;;;2.30;1.00;;;;;;;18.48;100.00;101001.86;104908;1261;61025;-49
2023/09/07 06:15:19;;;;;;;2.30;0.80;;;;;;;18.47;100.00;101002.45;104710;1254;60621;-50
2023/09/07 06:17:46;;;;;;;1.20;0.80;;;;;;;18.46;100.00;101006.02;105351;1256;72072;-50
2023/09/07 06:20:14;;;;;;;2.50;0.70;;;;;;;18.46;100.00;101009.11;104665;1256;67108;-51
2023/09/07 06:22:44;;;;;;;1.10;0.50;;;;;;;18.46;100.00;101014.39;104639;1261;71722;-49
2023/09/07 06:25:12;;;;;;;1.60;0.80;;;;;;;18.45;100.00;101008.43;105351;1261;61211;-50
2023/09/07 06:27:41;;;;;;;1.40;0.70;;;;;;;18.47;100.00;101015.92;104982;1260;60553;-49
2023/09/07 06:30:09;;;;;;;1.80;0.70;;;;;;;18.50;100.00;101013.58;104889;1256;73774;-51
2023/09/07 06:32:38;;;;;;;2.70;0.70;;;;;;;18.58;100.00;101016.98;104984;1259;67085;-50
2023/09/07 06:35:08;;;;;;;1.20;0.70;;;;;;;18.63;100.00;101021.70;105129;1256;72918;-51
2023/09/07 06:37:36;;;;;;;1.10;0.70;;;;;;;18.65;100.00;101024.30;104855;1256;60520;-51
2023/09/07 06:40:04;;;;;;;1.30;0.50;;;;;;;18.68;100.00;101025.96;105109;1256;60707;-50
2023/09/07 06:42:31;;;;;;;2.30;0.70;;;;;;;18.71;100.00;101029.03;105540;1257;72615;-50
2023/09/07 06:45:07;;;;;;;1.40;0.60;;;;;;;18.73;100.00;101031.44;104914;1255;65521;-49
2023/09/07 06:47:34;;;;;;;4.80;0.60;;;;;;;18.76;100.00;101032.89;104959;1260;74389;-52
2023/09/07 06:50:03;;;;;;;2.50;0.70;;;;;;;18.75;100.00;101034.57;105204;1259;60632;-50
2023/09/07 06:52:30;;;;;;;1.20;0.60;;;;;;;18.76;100.00;101038.16;105066;1259;60381;-50
2023/09/07 06:54:58;;;;;;;2.30;0.70;;;;;;;18.79;100.00;101039.63;105446;1259;73856;-51
2023/09/07 06:57:26;;;;;;;1.10;0.80;;;;;;;18.82;100.00;101042.70;104708;1256;65513;-51
2023/09/07 06:59:53;;;;;;;1.20;0.60;;;;;;;18.85;100.00;101046.14;106251;1256;73263;-52
2023/09/07 07:02:21;;;;;;;1.30;0.60;;;;;;;18.92;100.00;101047.74;104759;1259;62126;-51
2023/09/07 07:04:49;;;;;;;0.80;0.60;;;;;;;19.01;100.00;101045.73;104889;1256;60467;-53
2023/09/07 07:07:17;;;;;;;2.30;0.90;;;;;;;19.08;100.00;101040.73;104937;1255;71939;-53
2023/09/07 07:09:45;;;;;;;1.40;0.60;;;;;;;19.13;100.00;101040.76;108856;1256;65755;-51
2023/09/07 07:12:13;;;;;;;1.30;0.60;;;;;;;19.17;100.00;101042.89;108842;1256;72757;-51
2023/09/07 07:15:47;;;;;;;5.70;0.60;;;;;;;19.19;100.00;101080.58;101316;1296;601401;-52
2023/09/07 07:18:15;;;;;;;1.60;0.60;;;;;;;19.21;100.00;101067.19;103937;1266;59314;-52
2023/09/07 07:20:46;;;;;;;0.70;0.50;;;;;;;19.24;100.00;101065.88;103758;1266;60676;-51
2023/09/07 07:23:14;;;;;;;2.60;0.50;;;;;;;19.31;100.00;101066.90;108186;1265;74547;-52
2023/09/07 07:25:41;;;;;;;0.90;0.50;;;;;;;19.38;100.00;101069.93;104434;1267;65578;-52
2023/09/07 07:28:10;;;;;;;6.00;0.50;;;;;;;19.41;100.00;101069.17;105034;1266;72497;-51
2023/09/07 07:30:40;;;;;;;1.20;0.70;;;;;;;19.41;100.00;101069.86;104229;1265;160812;-52
2023/09/07 07:33:07;;;;;;;2.40;0.40;;;;;;;19.46;100.00;101062.48;104665;1265;59248;-50
2023/09/07 07:35:35;;;;;;;0.40;0.40;;;;;;;19.53;100.00;101065.29;104000;1268;72787;-51
2023/09/07 07:38:04;;;;;;;1.00;0.50;;;;;;;19.59;100.00;101064.73;104502;1264;66729;-51
2023/09/07 07:40:32;;;;;;;1.20;0.40;;;;;;;19.63;100.00;101066.82;104497;1266;71387;-52
2023/09/07 07:42:59;;;;;;;2.70;0.50;;;;;;;19.67;100.00;101065.17;104204;1265;59730;-50
2023/09/07 07:45:27;;;;;;;1.90;0.50;;;;;;;19.69;100.00;101068.48;104176;1267;60550;-51
2023/09/07 07:47:55;;;;;;;1.00;0.40;;;;;;;19.72;100.00;101063.40;104057;1266;73065;-50
2023/09/07 07:50:22;;;;;;;0.70;0.40;;;;;;;19.77;100.00;101062.64;104411;1270;67132;-51
2023/09/07 07:52:50;;;;;;;2.10;0.60;;;;;;;19.83;100.00;101062.77;103935;1268;72830;-50
2023/09/07 07:55:18;;;;;;;4.70;0.70;;;;;;;19.89;100.00;101062.40;104083;1266;59676;-52
2023/09/07 07:57:45;;;;;;;3.40;0.50;;;;;;;19.95;100.00;101061.08;104266;1265;59843;-50
2023/09/07 08:00:13;;;;;;;3.20;0.50;;;;;;;19.99;100.00;101064.05;104251;1266;71771;-51
2023/09/07 08:02:44;;;;;;;0.50;0.30;;;;;;;20.08;100.00;101058.75;104967;1266;65838;-51
2023/09/07 08:05:12;;;;;;;1.80;0.50;;;;;;;20.17;100.00;101061.84;104039;1268;71776;-52
2023/09/07 08:07:40;;;;;;;1.90;0.50;;;;;;;20.22;100.00;101063.44;104165;1266;59704;-49
2023/09/07 08:10:07;;;;;;;0.80;0.40;;;;;;;20.25;100.00;101060.91;103964;1265;61435;-52
2023/09/07 08:12:35;;;;;;;5.00;0.50;;;;;;;20.27;100.00;101061.24;108067;1266;71832;-53
2023/09/07 08:15:03;;;;;;;1.10;0.50;;;;;;;20.33;100.00;101065.27;104270;1265;66995;-49
2023/09/07 08:17:30;;;;;;;2.80;0.40;;;;;;;20.34;100.00;101067.02;104660;1271;75034;-51
2023/09/07 08:19:58;;;;;;;0.60;0.40;;;;;;;20.32;100.00;101067.71;104582;1271;62033;-50
2023/09/07 08:22:27;;;;;;;3.90;0.60;;;;;;;20.32;100.00;101065.89;104145;1266;59936;-51
2023/09/07 08:24:55;;;;;;;1.70;0.30;;;;;;;20.32;100.00;101069.51;103974;1265;73476;-51
2023/09/07 08:27:22;;;;;;;0.90;0.30;;;;;;;20.34;100.00;101071.96;103823;1268;66828;-53
2023/09/07 08:29:53;;;;;;;2.10;0.40;;;;;;;20.34;100.00;101073.75;104512;1259;71218;-53
2023/09/07 08:32:22;;;;;;;3.30;0.40;;;;;;;20.32;100.00;101070.77;108533;1256;58830;-53
2023/09/07 08:34:50;;;;;;;2.80;0.50;;;;;;;20.31;100.00;101072.89;104727;1256;60928;-52
2023/09/07 08:37:18;;;;;;;4.00;0.60;;;;;;;20.34;100.00;101072.34;104811;1257;73079;-52
2023/09/07 08:39:45;;;;;;;0.80;0.30;;;;;;;20.36;100.00;101073.06;105432;1262;66899;-51
2023/09/07 08:42:13;;;;;;;2.20;0.50;;;;;;;20.41;100.00;101072.25;104513;1256;72670;-52
2023/09/07 08:44:40;;;;;;;2.20;0.40;;;;;;;20.45;100.00;101073.98;108691;1256;58461;-53
2023/09/07 08:47:08;;;;;;;1.90;0.40;;;;;;;20.49;100.00;101074.98;108681;1256;60047;-52
2023/09/07 08:49:35;;;;;;;1.20;0.40;;;;;;;20.53;100.00;101077.61;108833;1256;71846;-49
2023/09/07 08:52:04;;;;;;;2.50;0.40;;;;;;;20.54;100.00;101076.77;108639;1257;65797;-51
2023/09/07 08:54:32;;;;;;;2.30;0.40;;;;;;;20.56;100.00;101080.85;108668;1256;72675;-52
2023/09/07 08:57:03;;;;;;;2.90;0.40;;;;;;;20.57;100.00;101075.85;108688;1256;58175;-52
2023/09/07 08:59:31;;;;;;;2.90;0.40;;;;;;;20.62;100.00;101080.81;108582;1256;62207;-52
2023/09/07 09:01:58;;;;;;;0.60;0.40;;;;;;;20.68;100.00;101079.11;108726;1256;72975;-52
2023/09/07 09:04:27;;;;;;;0.50;0.30;;;;;;;20.72;100.00;101081.58;108819;1258;67160;-52
2023/09/07 09:06:56;;;;;;;0.60;0.40;;;;;;;20.74;100.00;101084.14;108668;1254;72458;-52
2023/09/07 09:09:24;;;;;;;0.40;0.40;;;;;;;20.80;100.00;101085.38;108113;1256;58817;-52
2023/09/07 09:11:51;;;;;;;1.50;0.40;;;;;;;20.86;100.00;101086.77;104669;1257;60318;-50
2023/09/07 09:14:21;;;;;;;0.60;0.30;;;;;;;20.91;100.00;101088.41;104566;1254;72772;-50
2023/09/07 09:16:50;;;;;;;0.50;0.30;;;;;;;20.95;100.00;101089.27;108823;1253;65711;-51
2023/09/07 09:19:20;;;;;;;2.30;0.50;;;;;;;20.95;100.00;101087.91;108960;1256;71468;-51
2023/09/07 09:21:49;;;;;;;1.20;0.40;;;;;;;20.98;100.00;101089.25;104995;1258;60691;-50
2023/09/07 09:24:18;;;;;;;4.70;0.50;;;;;;;20.98;100.00;101091.95;104755;1256;59662;-50
2023/09/07 09:26:45;;;;;;;2.70;0.50;;;;;;;21.00;100.00;101094.70;108730;1255;73008;-51
2023/09/07 09:29:14;;;;;;;0.90;0.50;;;;;;;21.05;100.00;101093.26;108388;1256;67696;-49
2023/09/07 09:31:42;;;;;;;3.50;0.40;;;;;;;21.10;100.00;101092.34;104731;1255;71402;-51
2023/09/07 09:34:10;;;;;;;1.00;0.40;;;;;;;21.15;100.00;101089.85;105719;1256;60602;-52
2023/09/07 09:36:37;;;;;;;3.80;0.40;;;;;;;21.18;100.00;101090.78;104573;1256;60001;-50
2023/09/07 09:39:05;;;;;;;0.70;0.40;;;;;;;21.21;100.00;101090.19;104906;1258;73123;-50
2023/09/07 09:41:33;;;;;;;1.60;0.50;;;;;;;21.27;100.00;101091.02;104723;1259;66776;-49
2023/09/07 09:44:04;;;;;;;0.60;0.50;;;;;;;21.31;100.00;101090.36;104767;1255;71446;-51
2023/09/07 09:46:31;;;;;;;3.80;0.80;;;;;;;21.35;100.00;101090.40;104612;1260;60861;-50
2023/09/07 09:48:59;;;;;;;0.60;0.40;;;;;;;21.41;100.00;101094.02;105764;1254;60016;-52
2023/09/07 09:51:27;;;;;;;0.60;0.50;;;;;;;21.47;100.00;101095.56;104697;1256;71943;-50
2023/09/07 09:53:54;;;;;;;0.90;0.30;;;;;;;21.50;100.00;101095.31;105519;1254;68897;-53
2023/09/07 09:56:22;;;;;;;3.60;0.30;;;;;;;21.50;100.00;101099.89;104717;1257;71475;-52
2023/09/07 09:58:50;;;;;;;1.30;0.40;;;;;;;21.47;100.00;101099.77;105044;1256;59744;-50
2023/09/07 10:01:17;;;;;;;1.30;0.40;;;;;;;21.45;100.00;101098.25;104682;1255;59589;-52
2023/09/07 10:03:46;;;;;;;2.50;0.40;;;;;;;21.45;100.00;101102.83;104822;1254;76356;-51
2023/09/07 10:06:20;;;;;;;0.40;0.30;;;;;;;21.46;100.00;101104.77;105225;1256;67236;-51
2023/09/07 10:09:00;;;;;;;3.20;0.40;;;;;;;21.50;100.00;101104.64;104842;1256;72914;-52
2023/09/07 10:11:32;;;;;;;1.10;0.30;;;;;;;21.56;100.00;101107.17;104940;1258;60112;-51
2023/09/07 10:14:03;;;;;;;2.50;0.40;;;;;;;21.61;100.00;101109.73;105205;1255;60188;-51
2023/09/07 10:16:44;;;;;;;0.80;0.30;;;;;;;21.62;100.00;101112.52;105125;1256;73672;-50
2023/09/07 10:19:16;;;;;;;1.00;0.40;;;;;;;21.65;100.00;101110.15;105146;1259;68073;-51
2023/09/07 10:21:43;;;;;;;4.00;0.40;;;;;;;21.69;100.00;101104.94;105352;1256;71447;-51
2023/09/07 10:24:11;;;;;;;3.70;0.40;;;;;;;21.72;100.00;101103.23;104966;1256;60158;-50
2023/09/07 10:26:38;;;;;;;0.50;0.30;;;;;;;21.76;100.00;101103.09;104541;1255;60085;-52
2023/09/07 10:29:06;;;;;;;3.40;0.40;;;;;;;21.75;100.00;101107.06;104891;1257;71977;-52
2023/09/07 10:31:33;;;;;;;1.50;0.30;;;;;;;21.72;100.00;101111.79;105029;1256;67249;-50
2023/09/07 10:34:22;;;;;;;1.40;0.40;;;;;;;21.67;100.00;101112.73;104886;1259;72845;-51
2023/09/07 10:36:55;;;;;;;0.90;0.40;;;;;;;21.65;100.00;101111.26;104899;1261;59752;-52
2023/09/07 10:39:22;;;;;;;1.50;0.40;;;;;;;21.63;100.00;101111.21;104792;1256;61748;-50
2023/09/07 10:41:49;;;;;;;0.60;0.40;;;;;;;21.60;100.00;101110.91;105010;1258;73017;-53
2023/09/07 10:44:25;;;;;;;3.30;0.30;;;;;;;21.56;100.00;101107.55;105017;1254;65675;-50
2023/09/07 10:46:52;;;;;;;2.30;0.30;;;;;;;21.54;100.00;101111.69;104915;1258;73709;-51
2023/09/07 10:49:20;;;;;;;1.60;0.40;;;;;;;21.60;100.00;101108.90;104835;1254;60207;-51
2023/09/07 10:51:47;;;;;;;2.80;0.60;;;;;;;21.64;100.00;101114.78;104864;1254;60354;-50
2023/09/07 10:54:21;;;;;;;0.80;0.30;;;;;;;21.69;100.00;101116.10;104899;1257;71849;-51
2023/09/07 10:56:49;;;;;;;2.00;0.40;;;;;;;21.75;100.00;101109.39;104616;1259;66766;-49
2023/09/07 10:59:17;;;;;;;4.90;0.40;;;;;;;21.81;100.00;101109.13;105250;1254;71292;-49
2023/09/07 11:01:45;;;;;;;5.50;0.40;;;;;;;21.83;100.00;101105.89;104829;1256;60134;-51
2023/09/07 11:04:13;;;;;;;4.90;0.40;;;;;;;21.83;100.00;101115.20;105266;1256;60050;-51
2023/09/07 11:06:40;;;;;;;5.10;0.30;;;;;;;21.84;100.00;101108.77;104691;1258;72045;-51
2023/09/07 11:09:10;;;;;;;5.40;0.40;;;;;;;21.86;100.00;101112.76;104909;1256;65489;-49
2023/09/07 11:11:38;;;;;;;0.50;0.30;;;;;;;21.88;100.00;101108.80;105183;1258;72437;-50
2023/09/07 11:14:06;;;;;;;0.70;0.20;;;;;;;21.88;100.00;101117.21;104802;1254;60539;-50
2023/09/07 11:16:33;;;;;;;2.20;0.30;;;;;;;21.86;100.00;101115.52;104969;1258;60936;-51